sensor_id;sensor_type;location;lat;lon;timestamp;temperature;humidity
46085;DHT22;31823;47.032;8.310;2022-08-19T00:01:26;16.40;99.90
46085;DHT22;31823;47.032;8.310;2022-08-19T00:03:52;16.40;99.90
46085;DHT22;31823;47.032;8.310;2022-08-19T00:06:18;16.30;99.90
46085;DHT22;31823;47.032;8.310;2022-08-19T00:08:44;16.40;99.90
46085;DHT22;31823;47.032;8.310;2022-08-19T00:11:10;16.40;99.90
46085;DHT22;31823;47.032;8.310;2022-08-19T00:13:36;16.30;99.90
46085;DHT22;31823;47.032;8.310;2022-08-19T00:16:05;16.30;99.90
46085;DHT22;31823;47.032;8.310;2022-08-19T00:18:31;16.30;99.90
46085;DHT22;31823;47.032;8.310;2022-08-19T00:20:57;16.30;99.90
46085;DHT22;31823;47.032;8.310;2022-08-19T00:23:24;16.30;99.90
46085;DHT22;31823;47.032;8.310;2022-08-19T00:25:50;16.30;99.90
46085;DHT22;31823;47.032;8.310;2022-08-19T00:28:16;16.30;99.90
46085;DHT22;31823;47.032;8.310;2022-08-19T00:30:41;16.30;99.90
46085;DHT22;31823;47.032;8.310;2022-08-19T00:33:07;16.30;99.90
46085;DHT22;31823;47.032;8.310;2022-08-19T00:35:33;16.30;99.90
46085;DHT22;31823;47.032;8.310;2022-08-19T00:37:59;16.20;99.90
46085;DHT22;31823;47.032;8.310;2022-08-19T00:40:26;16.20;99.90
46085;DHT22;31823;47.032;8.310;2022-08-19T00:42:51;16.20;99.90
46085;DHT22;31823;47.032;8.310;2022-08-19T00:45:21;16.20;99.90
46085;DHT22;31823;47.032;8.310;2022-08-19T00:47:48;16.30;99.90
46085;DHT22;31823;47.032;8.310;2022-08-19T00:50:17;16.30;99.90
46085;DHT22;31823;47.032;8.310;2022-08-19T00:52:47;16.20;99.90
46085;DHT22;31823;47.032;8.310;2022-08-19T00:55:26;16.30;99.90
46085;DHT22;31823;47.032;8.310;2022-08-19T00:58:04;16.30;99.90
46085;DHT22;31823;47.032;8.310;2022-08-19T01:00:48;16.30;99.90
46085;DHT22;31823;47.032;8.310;2022-08-19T01:03:17;16.20;99.90
46085;DHT22;31823;47.032;8.310;2022-08-19T01:05:44;16.20;99.90
46085;DHT22;31823;47.032;8.310;2022-08-19T01:08:11;16.30;99.90
46085;DHT22;31823;47.032;8.310;2022-08-19T01:10:41;16.30;99.90
46085;DHT22;31823;47.032;8.310;2022-08-19T01:13:08;16.20;99.90
46085;DHT22;31823;47.032;8.310;2022-08-19T01:15:42;16.20;99.90
46085;DHT22;31823;47.032;8.310;2022-08-19T01:18:12;16.30;99.90
46085;DHT22;31823;47.032;8.310;2022-08-19T01:20:39;16.40;99.90
46085;DHT22;31823;47.032;8.310;2022-08-19T01:23:05;16.50;99.90
46085;DHT22;31823;47.032;8.310;2022-08-19T01:25:48;16.40;99.90
46085;DHT22;31823;47.032;8.310;2022-08-19T01:28:26;16.50;99.90
46085;DHT22;31823;47.032;8.310;2022-08-19T01:30:54;16.50;99.90
46085;DHT22;31823;47.032;8.310;2022-08-19T01:33:20;16.40;99.90
46085;DHT22;31823;47.032;8.310;2022-08-19T01:35:46;16.40;99.90
46085;DHT22;31823;47.032;8.310;2022-08-19T01:38:36;16.40;99.90
46085;DHT22;31823;47.032;8.310;2022-08-19T01:41:02;16.40;99.90
46085;DHT22;31823;47.032;8.310;2022-08-19T01:43:28;16.50;99.90
46085;DHT22;31823;47.032;8.310;2022-08-19T01:45:54;16.40;99.90
46085;DHT22;31823;47.032;8.310;2022-08-19T01:48:19;16.40;99.90
46085;DHT22;31823;47.032;8.310;2022-08-19T01:50:45;16.40;99.90
46085;DHT22;31823;47.032;8.310;2022-08-19T01:53:12;16.40;99.90
46085;DHT22;31823;47.032;8.310;2022-08-19T01:55:40;16.30;99.90
46085;DHT22;31823;47.032;8.310;2022-08-19T01:58:08;16.30;99.90
46085;DHT22;31823;47.032;8.310;2022-08-19T02:00:35;16.30;99.90
46085;DHT22;31823;47.032;8.310;2022-08-19T02:03:01;16.30;99.90
46085;DHT22;31823;47.032;8.310;2022-08-19T02:05:27;16.30;99.90
46085;DHT22;31823;47.032;8.310;2022-08-19T02:07:57;16.30;99.90
46085;DHT22;31823;47.032;8.310;2022-08-19T02:10:25;16.30;99.90
46085;DHT22;31823;47.032;8.310;2022-08-19T02:12:50;16.30;99.90
46085;DHT22;31823;47.032;8.310;2022-08-19T02:15:17;16.30;99.90
46085;DHT22;31823;47.032;8.310;2022-08-19T02:17:45;16.30;99.90
46085;DHT22;31823;47.032;8.310;2022-08-19T02:20:11;16.30;99.90
46085;DHT22;31823;47.032;8.310;2022-08-19T02:22:39;16.30;99.90
46085;DHT22;31823;47.032;8.310;2022-08-19T02:25:07;16.20;99.90
46085;DHT22;31823;47.032;8.310;2022-08-19T02:27:33;16.20;99.90
46085;DHT22;31823;47.032;8.310;2022-08-19T02:29:59;16.20;99.90
46085;DHT22;31823;47.032;8.310;2022-08-19T02:32:26;16.20;99.90
46085;DHT22;31823;47.032;8.310;2022-08-19T02:34:51;16.10;99.90
46085;DHT22;31823;47.032;8.310;2022-08-19T02:37:17;16.20;99.90
46085;DHT22;31823;47.032;8.310;2022-08-19T02:40:02;16.20;99.90
46085;DHT22;31823;47.032;8.310;2022-08-19T02:42:28;16.20;99.90
46085;DHT22;31823;47.032;8.310;2022-08-19T02:44:55;16.10;99.90
46085;DHT22;31823;47.032;8.310;2022-08-19T02:47:21;16.10;99.90
46085;DHT22;31823;47.032;8.310;2022-08-19T02:49:47;16.10;99.90
46085;DHT22;31823;47.032;8.310;2022-08-19T02:52:15;16.20;99.90
46085;DHT22;31823;47.032;8.310;2022-08-19T02:54:41;16.10;99.90
46085;DHT22;31823;47.032;8.310;2022-08-19T02:57:07;16.10;99.90
46085;DHT22;31823;47.032;8.310;2022-08-19T02:59:34;16.20;99.90
46085;DHT22;31823;47.032;8.310;2022-08-19T03:01:59;16.20;99.90
46085;DHT22;31823;47.032;8.310;2022-08-19T03:04:25;16.20;99.90
46085;DHT22;31823;47.032;8.310;2022-08-19T03:06:51;16.20;99.90
46085;DHT22;31823;47.032;8.310;2022-08-19T03:09:18;16.20;99.90
46085;DHT22;31823;47.032;8.310;2022-08-19T03:11:46;16.10;99.90
46085;DHT22;31823;47.032;8.310;2022-08-19T03:14:12;16.20;99.90
46085;DHT22;31823;47.032;8.310;2022-08-19T03:16:44;16.10;99.90
46085;DHT22;31823;47.032;8.310;2022-08-19T03:19:12;16.20;99.90
46085;DHT22;31823;47.032;8.310;2022-08-19T03:21:37;16.20;99.90
46085;DHT22;31823;47.032;8.310;2022-08-19T03:24:06;16.20;99.90
46085;DHT22;31823;47.032;8.310;2022-08-19T03:26:33;16.20;99.90
46085;DHT22;31823;47.032;8.310;2022-08-19T03:29:02;16.20;99.90
46085;DHT22;31823;47.032;8.310;2022-08-19T03:31:28;16.10;99.90
46085;DHT22;31823;47.032;8.310;2022-08-19T03:33:53;16.20;99.90
46085;DHT22;31823;47.032;8.310;2022-08-19T03:36:22;16.20;99.90
46085;DHT22;31823;47.032;8.310;2022-08-19T03:38:51;16.30;99.90
46085;DHT22;31823;47.032;8.310;2022-08-19T03:41:25;16.30;99.90
46085;DHT22;31823;47.032;8.310;2022-08-19T03:43:52;16.20;99.90
46085;DHT22;31823;47.032;8.310;2022-08-19T03:46:21;16.30;99.90
46085;DHT22;31823;47.032;8.310;2022-08-19T03:48:49;16.30;99.90
46085;DHT22;31823;47.032;8.310;2022-08-19T03:51:34;16.30;99.90
46085;DHT22;31823;47.032;8.310;2022-08-19T03:54:02;16.30;99.90
46085;DHT22;31823;47.032;8.310;2022-08-19T03:56:29;16.20;99.90
46085;DHT22;31823;47.032;8.310;2022-08-19T03:58:56;16.20;99.90
46085;DHT22;31823;47.032;8.310;2022-08-19T04:01:24;16.30;99.90
46085;DHT22;31823;47.032;8.310;2022-08-19T04:03:57;16.20;99.90
46085;DHT22;31823;47.032;8.310;2022-08-19T04:06:26;16.20;99.90
46085;DHT22;31823;47.032;8.310;2022-08-19T04:08:53;16.20;99.90
46085;DHT22;31823;47.032;8.310;2022-08-19T04:11:22;16.10;99.90
46085;DHT22;31823;47.032;8.310;2022-08-19T04:13:50;16.10;99.90
46085;DHT22;31823;47.032;8.310;2022-08-19T04:16:20;16.20;99.90
46085;DHT22;31823;47.032;8.310;2022-08-19T04:18:47;16.20;99.90
46085;DHT22;31823;47.032;8.310;2022-08-19T04:21:22;16.20;99.90
46085;DHT22;31823;47.032;8.310;2022-08-19T04:23:48;16.20;99.90
46085;DHT22;31823;47.032;8.310;2022-08-19T04:26:19;16.20;99.90
46085;DHT22;31823;47.032;8.310;2022-08-19T04:28:45;16.20;99.90
46085;DHT22;31823;47.032;8.310;2022-08-19T04:31:17;16.20;99.90
46085;DHT22;31823;47.032;8.310;2022-08-19T04:33:43;16.20;99.90
46085;DHT22;31823;47.032;8.310;2022-08-19T04:36:21;16.20;99.90
46085;DHT22;31823;47.032;8.310;2022-08-19T04:38:48;16.20;99.90
46085;DHT22;31823;47.032;8.310;2022-08-19T04:41:23;16.30;99.90
46085;DHT22;31823;47.032;8.310;2022-08-19T04:44:08;16.30;99.90
46085;DHT22;31823;47.032;8.310;2022-08-19T04:46:34;16.20;99.90
46085;DHT22;31823;47.032;8.310;2022-08-19T04:49:01;16.20;99.90
46085;DHT22;31823;47.032;8.310;2022-08-19T04:51:27;16.20;99.90
46085;DHT22;31823;47.032;8.310;2022-08-19T04:53:53;16.20;99.90
46085;DHT22;31823;47.032;8.310;2022-08-19T04:56:20;16.20;99.90
46085;DHT22;31823;47.032;8.310;2022-08-19T04:58:48;16.30;99.90
46085;DHT22;31823;47.032;8.310;2022-08-19T05:01:26;16.30;99.90
46085;DHT22;31823;47.032;8.310;2022-08-19T05:03:54;16.30;99.90
46085;DHT22;31823;47.032;8.310;2022-08-19T05:06:21;16.20;99.90
46085;DHT22;31823;47.032;8.310;2022-08-19T05:08:48;16.20;99.90
46085;DHT22;31823;47.032;8.310;2022-08-19T05:11:16;16.20;99.90
46085;DHT22;31823;47.032;8.310;2022-08-19T05:13:44;16.30;99.90
46085;DHT22;31823;47.032;8.310;2022-08-19T05:16:11;16.20;99.90
46085;DHT22;31823;47.032;8.310;2022-08-19T05:18:38;16.20;99.90
46085;DHT22;31823;47.032;8.310;2022-08-19T05:21:23;16.30;99.90
46085;DHT22;31823;47.032;8.310;2022-08-19T05:24:07;16.20;99.90
46085;DHT22;31823;47.032;8.310;2022-08-19T05:26:39;16.20;99.90
46085;DHT22;31823;47.032;8.310;2022-08-19T05:29:06;16.10;99.90
46085;DHT22;31823;47.032;8.310;2022-08-19T05:31:33;16.20;99.90
46085;DHT22;31823;47.032;8.310;2022-08-19T05:33:58;16.20;99.90
46085;DHT22;31823;47.032;8.310;2022-08-19T05:36:26;16.20;99.90
46085;DHT22;31823;47.032;8.310;2022-08-19T05:38:52;16.30;99.90
46085;DHT22;31823;47.032;8.310;2022-08-19T05:41:20;16.30;99.90
46085;DHT22;31823;47.032;8.310;2022-08-19T05:43:46;16.40;99.90
46085;DHT22;31823;47.032;8.310;2022-08-19T05:46:19;16.30;99.90
46085;DHT22;31823;47.032;8.310;2022-08-19T05:48:45;16.50;99.90
46085;DHT22;31823;47.032;8.310;2022-08-19T05:51:11;16.50;99.90
46085;DHT22;31823;47.032;8.310;2022-08-19T05:53:37;16.30;99.90
46085;DHT22;31823;47.032;8.310;2022-08-19T05:56:07;16.30;99.90
46085;DHT22;31823;47.032;8.310;2022-08-19T05:58:34;16.30;99.90
46085;DHT22;31823;47.032;8.310;2022-08-19T06:01:00;16.20;99.90
46085;DHT22;31823;47.032;8.310;2022-08-19T06:03:32;16.20;99.90
46085;DHT22;31823;47.032;8.310;2022-08-19T06:05:58;16.20;99.90
46085;DHT22;31823;47.032;8.310;2022-08-19T06:08:25;16.10;99.90
46085;DHT22;31823;47.032;8.310;2022-08-19T06:10:52;16.00;99.90
46085;DHT22;31823;47.032;8.310;2022-08-19T06:13:17;16.10;99.90
46085;DHT22;31823;47.032;8.310;2022-08-19T06:15:45;16.10;99.90
46085;DHT22;31823;47.032;8.310;2022-08-19T06:18:12;16.10;99.90
46085;DHT22;31823;47.032;8.310;2022-08-19T06:20:39;16.10;99.90
46085;DHT22;31823;47.032;8.310;2022-08-19T06:23:05;16.20;99.90
46085;DHT22;31823;47.032;8.310;2022-08-19T06:25:30;16.20;99.90
46085;DHT22;31823;47.032;8.310;2022-08-19T06:27:56;16.20;99.90
46085;DHT22;31823;47.032;8.310;2022-08-19T06:30:22;16.30;99.90
46085;DHT22;31823;47.032;8.310;2022-08-19T06:32:47;16.30;99.90
46085;DHT22;31823;47.032;8.310;2022-08-19T06:35:13;16.20;99.90
46085;DHT22;31823;47.032;8.310;2022-08-19T06:37:40;16.20;99.90
46085;DHT22;31823;47.032;8.310;2022-08-19T06:40:06;16.20;99.90
46085;DHT22;31823;47.032;8.310;2022-08-19T06:42:34;16.10;99.90
46085;DHT22;31823;47.032;8.310;2022-08-19T06:45:00;16.10;99.90
46085;DHT22;31823;47.032;8.310;2022-08-19T06:47:28;16.10;99.90
46085;DHT22;31823;47.032;8.310;2022-08-19T06:49:58;16.10;99.90
46085;DHT22;31823;47.032;8.310;2022-08-19T06:52:29;16.10;99.90
46085;DHT22;31823;47.032;8.310;2022-08-19T06:54:55;16.20;99.90
46085;DHT22;31823;47.032;8.310;2022-08-19T06:57:25;16.20;99.90
46085;DHT22;31823;47.032;8.310;2022-08-19T06:59:51;16.10;99.90
46085;DHT22;31823;47.032;8.310;2022-08-19T07:02:18;16.20;99.90
46085;DHT22;31823;47.032;8.310;2022-08-19T07:04:43;16.20;99.90
46085;DHT22;31823;47.032;8.310;2022-08-19T07:07:12;16.20;99.90
46085;DHT22;31823;47.032;8.310;2022-08-19T07:09:40;16.20;99.90
46085;DHT22;31823;47.032;8.310;2022-08-19T07:12:09;16.30;99.90
46085;DHT22;31823;47.032;8.310;2022-08-19T07:14:37;16.10;99.90
46085;DHT22;31823;47.032;8.310;2022-08-19T07:17:09;16.20;99.90
46085;DHT22;31823;47.032;8.310;2022-08-19T07:19:35;16.00;99.90
46085;DHT22;31823;47.032;8.310;2022-08-19T07:22:04;15.80;99.90
46085;DHT22;31823;47.032;8.310;2022-08-19T07:24:34;15.70;99.90
46085;DHT22;31823;47.032;8.310;2022-08-19T07:27:01;15.80;99.90
46085;DHT22;31823;47.032;8.310;2022-08-19T07:29:30;15.90;99.90
46085;DHT22;31823;47.032;8.310;2022-08-19T07:31:56;15.90;99.90
46085;DHT22;31823;47.032;8.310;2022-08-19T07:34:25;15.90;99.90
46085;DHT22;31823;47.032;8.310;2022-08-19T07:36:51;15.80;99.90
46085;DHT22;31823;47.032;8.310;2022-08-19T07:39:29;15.70;99.90
46085;DHT22;31823;47.032;8.310;2022-08-19T07:41:57;15.60;99.90
46085;DHT22;31823;47.032;8.310;2022-08-19T07:44:23;15.60;99.90
46085;DHT22;31823;47.032;8.310;2022-08-19T07:46:52;15.70;99.90
46085;DHT22;31823;47.032;8.310;2022-08-19T07:49:18;15.60;99.90
46085;DHT22;31823;47.032;8.310;2022-08-19T07:51:50;15.60;99.90
46085;DHT22;31823;47.032;8.310;2022-08-19T07:54:17;15.70;99.90
46085;DHT22;31823;47.032;8.310;2022-08-19T07:56:43;15.70;99.90
46085;DHT22;31823;47.032;8.310;2022-08-19T07:59:10;15.60;99.90
46085;DHT22;31823;47.032;8.310;2022-08-19T08:01:37;15.60;99.90
46085;DHT22;31823;47.032;8.310;2022-08-19T08:04:06;15.70;99.90
46085;DHT22;31823;47.032;8.310;2022-08-19T08:06:52;15.70;99.90
46085;DHT22;31823;47.032;8.310;2022-08-19T08:09:39;15.80;99.90
46085;DHT22;31823;47.032;8.310;2022-08-19T08:12:12;15.70;99.90
46085;DHT22;31823;47.032;8.310;2022-08-19T08:14:48;15.70;99.90
46085;DHT22;31823;47.032;8.310;2022-08-19T08:17:16;15.70;99.90
46085;DHT22;31823;47.032;8.310;2022-08-19T08:19:44;15.70;99.90
46085;DHT22;31823;47.032;8.310;2022-08-19T08:22:12;15.80;99.90
46085;DHT22;31823;47.032;8.310;2022-08-19T08:25:11;15.80;99.90
46085;DHT22;31823;47.032;8.310;2022-08-19T08:27:39;15.70;99.90
46085;DHT22;31823;47.032;8.310;2022-08-19T08:30:09;15.70;99.90
46085;DHT22;31823;47.032;8.310;2022-08-19T08:32:37;15.90;99.90
46085;DHT22;31823;47.032;8.310;2022-08-19T08:35:08;15.80;99.90
46085;DHT22;31823;47.032;8.310;2022-08-19T08:37:35;15.80;99.90
46085;DHT22;31823;47.032;8.310;2022-08-19T08:42:43;15.90;99.90
46085;DHT22;31823;47.032;8.310;2022-08-19T08:45:13;15.80;99.90
46085;DHT22;31823;47.032;8.310;2022-08-19T08:47:44;15.80;99.90
46085;DHT22;31823;47.032;8.310;2022-08-19T08:50:38;15.80;99.90
46085;DHT22;31823;47.032;8.310;2022-08-19T08:53:07;15.90;99.90
46085;DHT22;31823;47.032;8.310;2022-08-19T08:55:34;15.80;99.90
46085;DHT22;31823;47.032;8.310;2022-08-19T08:58:07;15.90;99.90
46085;DHT22;31823;47.032;8.310;2022-08-19T09:00:39;15.90;99.90
46085;DHT22;31823;47.032;8.310;2022-08-19T09:03:36;15.90;99.90
46085;DHT22;31823;47.032;8.310;2022-08-19T09:06:05;15.70;99.90
46085;DHT22;31823;47.032;8.310;2022-08-19T09:16:50;15.90;99.90
46085;DHT22;31823;47.032;8.310;2022-08-19T09:19:16;15.80;99.90
46085;DHT22;31823;47.032;8.310;2022-08-19T09:21:43;15.80;99.90
46085;DHT22;31823;47.032;8.310;2022-08-19T09:24:09;15.90;99.90
46085;DHT22;31823;47.032;8.310;2022-08-19T09:26:40;15.70;99.90
46085;DHT22;31823;47.032;8.310;2022-08-19T09:29:05;15.90;99.90
46085;DHT22;31823;47.032;8.310;2022-08-19T09:31:32;15.90;99.90
46085;DHT22;31823;47.032;8.310;2022-08-19T09:33:58;15.90;99.90
46085;DHT22;31823;47.032;8.310;2022-08-19T09:36:26;15.80;99.90
46085;DHT22;31823;47.032;8.310;2022-08-19T09:38:54;15.70;99.90
46085;DHT22;31823;47.032;8.310;2022-08-19T09:41:22;15.80;99.90
46085;DHT22;31823;47.032;8.310;2022-08-19T09:43:50;15.80;99.90
46085;DHT22;31823;47.032;8.310;2022-08-19T09:46:21;15.80;99.90
46085;DHT22;31823;47.032;8.310;2022-08-19T09:48:48;15.90;99.90
46085;DHT22;31823;47.032;8.310;2022-08-19T09:51:17;16.00;99.90
46085;DHT22;31823;47.032;8.310;2022-08-19T09:53:44;15.90;99.90
46085;DHT22;31823;47.032;8.310;2022-08-19T09:56:11;15.80;99.90
46085;DHT22;31823;47.032;8.310;2022-08-19T09:58:39;15.90;99.90
46085;DHT22;31823;47.032;8.310;2022-08-19T10:01:06;15.90;99.90
46085;DHT22;31823;47.032;8.310;2022-08-19T10:03:34;15.80;99.90
46085;DHT22;31823;47.032;8.310;2022-08-19T10:06:03;15.80;99.90
46085;DHT22;31823;47.032;8.310;2022-08-19T10:08:35;16.00;99.90
46085;DHT22;31823;47.032;8.310;2022-08-19T10:11:02;16.10;99.90
46085;DHT22;31823;47.032;8.310;2022-08-19T10:13:30;16.00;99.90
46085;DHT22;31823;47.032;8.310;2022-08-19T10:16:07;16.00;99.90
46085;DHT22;31823;47.032;8.310;2022-08-19T10:18:35;16.20;99.90
46085;DHT22;31823;47.032;8.310;2022-08-19T10:21:13;16.20;99.90
46085;DHT22;31823;47.032;8.310;2022-08-19T10:23:42;16.10;99.90
46085;DHT22;31823;47.032;8.310;2022-08-19T10:26:18;16.00;99.90
46085;DHT22;31823;47.032;8.310;2022-08-19T10:28:44;16.10;99.90
46085;DHT22;31823;47.032;8.310;2022-08-19T10:31:17;16.00;99.90
46085;DHT22;31823;47.032;8.310;2022-08-19T10:33:46;16.00;99.90
46085;DHT22;31823;47.032;8.310;2022-08-19T10:36:16;16.10;99.90
46085;DHT22;31823;47.032;8.310;2022-08-19T10:38:43;16.10;99.90
46085;DHT22;31823;47.032;8.310;2022-08-19T10:41:16;16.20;99.90
46085;DHT22;31823;47.032;8.310;2022-08-19T10:43:42;16.20;99.90
46085;DHT22;31823;47.032;8.310;2022-08-19T10:46:12;16.20;99.90
46085;DHT22;31823;47.032;8.310;2022-08-19T10:48:38;16.10;99.90
46085;DHT22;31823;47.032;8.310;2022-08-19T10:51:04;16.30;99.90
46085;DHT22;31823;47.032;8.310;2022-08-19T10:53:50;16.30;99.90
46085;DHT22;31823;47.032;8.310;2022-08-19T10:56:16;16.30;99.90
46085;DHT22;31823;47.032;8.310;2022-08-19T10:59:00;16.30;99.90
46085;DHT22;31823;47.032;8.310;2022-08-19T11:01:28;16.40;99.90
46085;DHT22;31823;47.032;8.310;2022-08-19T11:03:55;16.40;99.90
46085;DHT22;31823;47.032;8.310;2022-08-19T11:06:23;16.30;99.90
46085;DHT22;31823;47.032;8.310;2022-08-19T11:08:54;16.30;99.90
46085;DHT22;31823;47.032;8.310;2022-08-19T11:11:20;16.30;99.90
46085;DHT22;31823;47.032;8.310;2022-08-19T11:13:49;16.40;99.90
46085;DHT22;31823;47.032;8.310;2022-08-19T11:16:23;16.50;99.90
46085;DHT22;31823;47.032;8.310;2022-08-19T11:18:56;16.40;99.90
46085;DHT22;31823;47.032;8.310;2022-08-19T11:21:30;16.50;99.90
46085;DHT22;31823;47.032;8.310;2022-08-19T11:24:02;16.50;99.90
46085;DHT22;31823;47.032;8.310;2022-08-19T11:26:30;16.60;99.90
46085;DHT22;31823;47.032;8.310;2022-08-19T11:28:57;16.70;99.90
46085;DHT22;31823;47.032;8.310;2022-08-19T11:31:29;16.60;99.90
46085;DHT22;31823;47.032;8.310;2022-08-19T11:33:57;16.70;99.90
46085;DHT22;31823;47.032;8.310;2022-08-19T11:36:25;16.60;99.90
46085;DHT22;31823;47.032;8.310;2022-08-19T11:38:51;16.50;99.90
46085;DHT22;31823;47.032;8.310;2022-08-19T11:41:18;16.50;99.90
46085;DHT22;31823;47.032;8.310;2022-08-19T11:43:44;16.40;99.90
46085;DHT22;31823;47.032;8.310;2022-08-19T11:46:13;16.50;99.90
46085;DHT22;31823;47.032;8.310;2022-08-19T11:48:40;16.40;99.90
46085;DHT22;31823;47.032;8.310;2022-08-19T11:51:11;16.50;99.90
46085;DHT22;31823;47.032;8.310;2022-08-19T11:53:38;16.60;99.90
46085;DHT22;31823;47.032;8.310;2022-08-19T11:56:06;16.50;99.90
46085;DHT22;31823;47.032;8.310;2022-08-19T11:58:32;16.60;99.90
46085;DHT22;31823;47.032;8.310;2022-08-19T12:00:59;16.50;99.90
46085;DHT22;31823;47.032;8.310;2022-08-19T12:03:25;16.60;99.90
46085;DHT22;31823;47.032;8.310;2022-08-19T12:05:51;16.80;99.90
46085;DHT22;31823;47.032;8.310;2022-08-19T12:08:17;16.80;99.90
46085;DHT22;31823;47.032;8.310;2022-08-19T12:10:43;17.00;99.90
46085;DHT22;31823;47.032;8.310;2022-08-19T12:13:11;17.00;99.90
46085;DHT22;31823;47.032;8.310;2022-08-19T12:15:40;17.10;99.90
46085;DHT22;31823;47.032;8.310;2022-08-19T12:18:07;17.00;99.90
46085;DHT22;31823;47.032;8.310;2022-08-19T12:20:38;17.00;99.90
46085;DHT22;31823;47.032;8.310;2022-08-19T12:23:06;17.10;99.90
46085;DHT22;31823;47.032;8.310;2022-08-19T12:25:32;17.10;99.90
46085;DHT22;31823;47.032;8.310;2022-08-19T12:27:59;17.10;99.90
46085;DHT22;31823;47.032;8.310;2022-08-19T12:30:26;17.10;99.90
46085;DHT22;31823;47.032;8.310;2022-08-19T12:32:52;17.10;99.90
46085;DHT22;31823;47.032;8.310;2022-08-19T12:35:18;17.10;99.90
46085;DHT22;31823;47.032;8.310;2022-08-19T12:37:46;17.00;99.90
46085;DHT22;31823;47.032;8.310;2022-08-19T12:40:12;16.90;99.90
46085;DHT22;31823;47.032;8.310;2022-08-19T12:42:39;17.00;99.90
46085;DHT22;31823;47.032;8.310;2022-08-19T12:45:12;16.80;99.90
46085;DHT22;31823;47.032;8.310;2022-08-19T12:47:38;16.90;99.90
46085;DHT22;31823;47.032;8.310;2022-08-19T12:50:05;17.00;99.90
46085;DHT22;31823;47.032;8.310;2022-08-19T12:52:35;17.00;99.90
46085;DHT22;31823;47.032;8.310;2022-08-19T12:55:03;17.00;99.90
46085;DHT22;31823;47.032;8.310;2022-08-19T12:57:30;17.00;99.90
46085;DHT22;31823;47.032;8.310;2022-08-19T12:59:59;16.90;99.90
46085;DHT22;31823;47.032;8.310;2022-08-19T13:02:25;16.90;99.90
46085;DHT22;31823;47.032;8.310;2022-08-19T13:04:51;16.80;99.90
46085;DHT22;31823;47.032;8.310;2022-08-19T13:07:17;16.80;99.90
46085;DHT22;31823;47.032;8.310;2022-08-19T13:09:43;16.70;99.90
46085;DHT22;31823;47.032;8.310;2022-08-19T13:12:08;16.60;99.90
46085;DHT22;31823;47.032;8.310;2022-08-19T13:14:38;16.60;99.90
46085;DHT22;31823;47.032;8.310;2022-08-19T13:17:06;16.60;99.90
46085;DHT22;31823;47.032;8.310;2022-08-19T13:19:32;16.60;99.90
46085;DHT22;31823;47.032;8.310;2022-08-19T13:21:58;16.60;99.90
46085;DHT22;31823;47.032;8.310;2022-08-19T13:24:24;16.70;99.90
46085;DHT22;31823;47.032;8.310;2022-08-19T13:26:50;16.80;99.90
46085;DHT22;31823;47.032;8.310;2022-08-19T13:29:16;16.50;99.90
46085;DHT22;31823;47.032;8.310;2022-08-19T13:32:00;16.50;99.90
46085;DHT22;31823;47.032;8.310;2022-08-19T13:34:44;16.60;99.90
46085;DHT22;31823;47.032;8.310;2022-08-19T13:37:12;16.60;99.90
46085;DHT22;31823;47.032;8.310;2022-08-19T13:39:38;16.70;99.90
46085;DHT22;31823;47.032;8.310;2022-08-19T13:42:04;16.60;99.90
46085;DHT22;31823;47.032;8.310;2022-08-19T13:44:31;16.60;99.90
46085;DHT22;31823;47.032;8.310;2022-08-19T13:47:02;16.70;99.90
46085;DHT22;31823;47.032;8.310;2022-08-19T13:49:33;16.80;99.90
46085;DHT22;31823;47.032;8.310;2022-08-19T13:51:59;16.80;99.90
46085;DHT22;31823;47.032;8.310;2022-08-19T13:54:24;16.90;99.90
46085;DHT22;31823;47.032;8.310;2022-08-19T13:56:50;16.80;99.90
46085;DHT22;31823;47.032;8.310;2022-08-19T13:59:16;16.90;99.90
46085;DHT22;31823;47.032;8.310;2022-08-19T14:01:42;16.90;99.90
46085;DHT22;31823;47.032;8.310;2022-08-19T14:04:08;17.10;99.90
46085;DHT22;31823;47.032;8.310;2022-08-19T14:06:33;17.10;99.90
46085;DHT22;31823;47.032;8.310;2022-08-19T14:09:00;17.20;99.90
46085;DHT22;31823;47.032;8.310;2022-08-19T14:11:28;17.30;99.90
46085;DHT22;31823;47.032;8.310;2022-08-19T14:13:53;17.30;99.90
46085;DHT22;31823;47.032;8.310;2022-08-19T14:16:19;17.30;99.90
46085;DHT22;31823;47.032;8.310;2022-08-19T14:18:45;17.10;99.90
46085;DHT22;31823;47.032;8.310;2022-08-19T14:21:20;17.10;99.90
46085;DHT22;31823;47.032;8.310;2022-08-19T14:23:46;17.10;99.90
46085;DHT22;31823;47.032;8.310;2022-08-19T14:26:15;17.20;99.90
46085;DHT22;31823;47.032;8.310;2022-08-19T14:28:42;17.30;99.90
46085;DHT22;31823;47.032;8.310;2022-08-19T14:31:10;17.30;99.90
46085;DHT22;31823;47.032;8.310;2022-08-19T14:33:36;17.40;99.90
46085;DHT22;31823;47.032;8.310;2022-08-19T14:36:02;17.50;99.90
46085;DHT22;31823;47.032;8.310;2022-08-19T14:38:28;17.60;99.90
46085;DHT22;31823;47.032;8.310;2022-08-19T14:43:43;17.70;99.90
46085;DHT22;31823;47.032;8.310;2022-08-19T14:46:12;17.60;99.90
46085;DHT22;31823;47.032;8.310;2022-08-19T14:48:39;17.60;99.90
46085;DHT22;31823;47.032;8.310;2022-08-19T14:51:06;17.60;99.90
46085;DHT22;31823;47.032;8.310;2022-08-19T14:53:32;17.60;99.90
46085;DHT22;31823;47.032;8.310;2022-08-19T14:55:59;17.50;99.90
46085;DHT22;31823;47.032;8.310;2022-08-19T14:58:26;17.40;99.90
46085;DHT22;31823;47.032;8.310;2022-08-19T15:00:52;17.50;99.90
46085;DHT22;31823;47.032;8.310;2022-08-19T15:03:17;17.40;99.90
46085;DHT22;31823;47.032;8.310;2022-08-19T15:05:43;17.40;99.90
46085;DHT22;31823;47.032;8.310;2022-08-19T15:08:09;17.40;99.90
46085;DHT22;31823;47.032;8.310;2022-08-19T15:10:37;17.30;99.90
46085;DHT22;31823;47.032;8.310;2022-08-19T15:13:03;17.30;99.90
46085;DHT22;31823;47.032;8.310;2022-08-19T15:15:29;17.20;99.90
46085;DHT22;31823;47.032;8.310;2022-08-19T15:17:55;17.20;99.90
46085;DHT22;31823;47.032;8.310;2022-08-19T15:20:22;17.20;99.90
46085;DHT22;31823;47.032;8.310;2022-08-19T15:22:48;17.20;99.90
46085;DHT22;31823;47.032;8.310;2022-08-19T15:25:16;17.10;99.90
46085;DHT22;31823;47.032;8.310;2022-08-19T15:27:43;17.00;99.90
46085;DHT22;31823;47.032;8.310;2022-08-19T15:30:10;17.00;99.90
46085;DHT22;31823;47.032;8.310;2022-08-19T15:32:37;17.00;99.90
46085;DHT22;31823;47.032;8.310;2022-08-19T15:35:05;16.90;99.90
46085;DHT22;31823;47.032;8.310;2022-08-19T15:37:31;16.90;99.90
46085;DHT22;31823;47.032;8.310;2022-08-19T15:39:56;16.80;99.90
46085;DHT22;31823;47.032;8.310;2022-08-19T15:42:22;16.80;99.90
46085;DHT22;31823;47.032;8.310;2022-08-19T15:44:48;16.80;99.90
46085;DHT22;31823;47.032;8.310;2022-08-19T15:47:14;16.70;99.90
46085;DHT22;31823;47.032;8.310;2022-08-19T15:49:39;16.70;99.90
46085;DHT22;31823;47.032;8.310;2022-08-19T15:52:05;16.80;99.90